createdAt,value
2024-03-03T00:00:07.216Z,18.02
2024-03-03T00:01:10.994Z,20.65
2024-03-03T00:02:13.027Z,22.35
2024-03-03T00:03:15.672Z,19.30
2024-03-03T00:04:20.325Z,19.95
2024-03-03T00:05:22.407Z,24.75
2024-03-03T00:06:24.412Z,25.23
2024-03-03T00:07:27.312Z,24.27
2024-03-03T00:08:29.658Z,25.83
2024-03-03T00:09:33.375Z,28.65
2024-03-03T00:10:35.312Z,27.27
2024-03-03T00:11:38.270Z,30.10
2024-03-03T00:12:40.506Z,28.35
2024-03-03T00:13:43.545Z,26.52
2024-03-03T00:14:45.650Z,23.60
2024-03-03T00:15:48.633Z,27.85
2024-03-03T00:16:51.238Z,24.98
2024-03-03T00:17:54.619Z,25.17
2024-03-03T00:18:57.868Z,26.10
2024-03-03T00:20:03.167Z,24.35
2024-03-03T00:21:05.818Z,22.48
2024-03-03T00:22:08.919Z,27.13
2024-03-03T00:23:10.894Z,22.83
2024-03-03T00:24:13.970Z,24.52
2024-03-03T00:25:16.149Z,27.85
2024-03-03T00:26:19.189Z,33.28
2024-03-03T00:27:21.193Z,26.48
2024-03-03T00:28:24.148Z,23.55
2024-03-03T00:29:26.207Z,23.33
2024-03-03T00:30:29.154Z,22.25
2024-03-03T00:31:31.240Z,23.08
2024-03-03T00:32:34.405Z,29.42
2024-03-03T00:33:36.539Z,25.48
2024-03-03T00:34:39.901Z,24.73
2024-03-03T00:35:43.217Z,29.33
2024-03-03T00:36:45.198Z,27.98
2024-03-03T00:37:48.192Z,26.27
2024-03-03T00:38:51.050Z,27.17
2024-03-03T00:39:54.038Z,27.10
2024-03-03T00:40:56.325Z,27.63
2024-03-03T00:41:59.357Z,28.60
2024-03-03T00:43:01.453Z,27.38
2024-03-03T00:44:04.529Z,26.40
2024-03-03T00:45:07.436Z,28.77
2024-03-03T00:46:10.390Z,26.10
2024-03-03T00:47:12.376Z,24.10
2024-03-03T00:48:15.353Z,27.10
2024-03-03T00:49:18.153Z,25.35
2024-03-03T00:50:21.235Z,22.73
2024-03-03T00:51:24.579Z,24.58
2024-03-03T00:52:27.570Z,24.88
2024-03-03T00:53:29.515Z,24.95
2024-03-03T00:54:32.451Z,19.15
2024-03-03T00:55:35.027Z,23.08
2024-03-03T00:56:38.208Z,24.08
2024-03-03T00:57:59.596Z,22.10
2024-03-03T00:59:02.688Z,18.52
2024-03-03T01:00:05.955Z,18.75
2024-03-03T01:01:08.871Z,18.83
2024-03-03T01:02:11.145Z,19.13
2024-03-03T01:03:14.478Z,24.15
2024-03-03T01:04:16.771Z,32.47
2024-03-03T01:05:19.849Z,30.17
2024-03-03T01:06:22.563Z,28.83
2024-03-03T01:07:28.884Z,20.30
2024-03-03T01:08:31.466Z,26.33
2024-03-03T01:09:34.568Z,28.60
2024-03-03T01:10:36.506Z,28.88
2024-03-03T01:11:39.817Z,29.02
2024-03-03T01:12:41.883Z,27.85
2024-03-03T01:13:46.376Z,31.98
2024-03-03T01:14:48.327Z,31.35
2024-03-03T01:15:50.329Z,33.00
2024-03-03T01:16:53.397Z,24.15
2024-03-03T01:17:55.702Z,30.42
2024-03-03T01:18:58.674Z,29.42
2024-03-03T01:20:00.802Z,27.45
2024-03-03T01:21:04.977Z,26.70
2024-03-03T01:22:07.661Z,21.80
2024-03-03T01:23:13.621Z,32.42
2024-03-03T01:24:15.717Z,31.77
2024-03-03T01:25:18.759Z,27.08
2024-03-03T01:26:20.717Z,29.38
2024-03-03T01:27:23.679Z,32.78
2024-03-03T01:28:25.721Z,25.52
2024-03-03T01:29:28.772Z,29.75
2024-03-03T01:30:30.725Z,32.20
2024-03-03T01:31:33.743Z,31.63
2024-03-03T01:32:35.942Z,31.08
2024-03-03T01:33:38.910Z,30.83
2024-03-03T01:34:41.483Z,26.05
2024-03-03T01:35:44.407Z,32.70
2024-03-03T01:36:46.469Z,20.13
2024-03-03T01:37:49.501Z,25.02
2024-03-03T01:38:52.860Z,20.13
2024-03-03T01:39:55.970Z,25.98
2024-03-03T01:40:57.908Z,26.65
2024-03-03T01:42:00.807Z,26.65
2024-03-03T01:43:04.882Z,23.27
2024-03-03T01:44:07.993Z,22.67
2024-03-03T01:45:19.557Z,23.95
2024-03-03T01:46:22.556Z,30.20
2024-03-03T01:47:24.625Z,29.30
2024-03-03T01:48:27.014Z,21.80
2024-03-03T01:49:33.449Z,31.10
2024-03-03T01:50:37.674Z,23.70
2024-03-03T01:51:42.518Z,20.42
2024-03-03T01:52:45.770Z,21.95
2024-03-03T01:53:54.451Z,23.50
2024-03-03T01:54:57.037Z,19.67
2024-03-03T01:56:00.293Z,20.30
2024-03-03T01:57:03.375Z,17.15
2024-03-03T01:58:08.419Z,18.30
2024-03-03T01:59:11.744Z,24.17
2024-03-03T02:00:15.300Z,17.92
2024-03-03T02:01:18.421Z,17.27
2024-03-03T02:02:21.670Z,17.95
2024-03-03T02:03:24.115Z,16.52
2024-03-03T02:04:27.564Z,20.40
2024-03-03T02:05:31.344Z,19.05
2024-03-03T02:06:36.332Z,22.63
2024-03-03T02:07:38.728Z,19.15
2024-03-03T02:08:43.022Z,21.17
2024-03-03T02:09:46.902Z,21.15
2024-03-03T02:10:50.746Z,19.83
2024-03-03T02:11:52.847Z,19.80
2024-03-03T02:12:55.969Z,17.05
2024-03-03T02:13:58.673Z,16.77
2024-03-03T02:15:01.664Z,14.40
2024-03-03T02:16:04.206Z,17.95
2024-03-03T02:17:07.200Z,14.50
2024-03-03T02:18:09.242Z,16.85
2024-03-03T02:19:12.299Z,19.48
2024-03-03T02:20:14.317Z,17.50
2024-03-03T02:21:17.652Z,17.85
2024-03-03T02:22:21.140Z,16.65
2024-03-03T02:23:24.081Z,17.17
2024-03-03T02:24:26.044Z,16.55
2024-03-03T02:25:29.138Z,18.95
2024-03-03T02:26:31.777Z,17.33
2024-03-03T02:27:35.008Z,16.20
2024-03-03T02:28:38.183Z,16.65
2024-03-03T02:29:40.445Z,18.35
2024-03-03T02:30:43.475Z,18.42
2024-03-03T02:31:45.460Z,18.13
2024-03-03T02:32:48.435Z,17.60
2024-03-03T02:33:50.512Z,17.83
2024-03-03T02:34:53.531Z,17.55
2024-03-03T02:35:55.555Z,18.40
2024-03-03T02:36:58.537Z,18.83
2024-03-03T02:38:01.852Z,18.90
2024-03-03T02:39:04.856Z,19.83
2024-03-03T02:40:08.623Z,23.27
2024-03-03T02:42:13.494Z,21.25
2024-03-03T02:43:15.529Z,20.70
2024-03-03T02:44:17.494Z,18.88
2024-03-03T02:45:20.476Z,18.00
2024-03-03T02:46:22.467Z,24.50
2024-03-03T02:47:25.501Z,22.40
2024-03-03T02:48:27.498Z,22.67
2024-03-03T02:49:30.509Z,26.10
2024-03-03T02:50:32.481Z,25.30
2024-03-03T02:51:35.396Z,26.80
2024-03-03T02:52:37.700Z,27.92
2024-03-03T02:53:41.006Z,26.02
2024-03-03T02:54:44.149Z,26.40
2024-03-03T02:55:46.227Z,23.70
2024-03-03T02:56:49.173Z,23.02
2024-03-03T02:57:51.151Z,24.48
2024-03-03T02:58:53.111Z,22.10
2024-03-03T02:59:56.817Z,24.02
2024-03-03T03:00:58.983Z,25.70
2024-03-03T03:02:02.419Z,21.42
2024-03-03T03:03:04.651Z,19.10
2024-03-03T03:04:07.613Z,21.15
2024-03-03T03:05:10.598Z,22.13
2024-03-03T03:06:13.633Z,21.38
2024-03-03T03:07:15.904Z,17.60
2024-03-03T03:08:18.923Z,18.95
2024-03-03T03:09:22.756Z,21.25
2024-03-03T03:10:25.723Z,19.75
2024-03-03T03:11:27.774Z,21.10
2024-03-03T03:12:29.737Z,21.23
2024-03-03T03:13:32.684Z,19.58
2024-03-03T03:14:34.632Z,20.20
2024-03-03T03:15:37.882Z,21.15
2024-03-03T03:16:41.922Z,20.02
2024-03-03T03:17:45.076Z,21.23
2024-03-03T03:18:47.592Z,19.80
2024-03-03T03:19:50.822Z,22.92
2024-03-03T03:20:52.835Z,18.40
2024-03-03T03:21:55.798Z,21.88
2024-03-03T03:22:57.897Z,20.20
2024-03-03T03:23:59.917Z,17.75
2024-03-03T03:25:06.349Z,20.33
2024-03-03T03:26:08.566Z,19.65
2024-03-03T03:27:11.502Z,20.33
2024-03-03T03:28:13.502Z,20.02
2024-03-03T03:29:15.650Z,19.40
2024-03-03T03:30:18.555Z,18.17
2024-03-03T03:31:20.641Z,18.92
2024-03-03T03:32:23.778Z,17.17
2024-03-03T03:33:25.692Z,17.10
2024-03-03T03:34:28.630Z,16.15
2024-03-03T03:35:30.738Z,18.90
2024-03-03T03:36:33.775Z,17.77
2024-03-03T03:37:35.786Z,19.80
2024-03-03T03:38:39.188Z,19.27
2024-03-03T03:39:41.398Z,19.95
2024-03-03T03:40:45.657Z,17.80
2024-03-03T03:41:49.050Z,18.48
2024-03-03T03:42:51.997Z,17.42
2024-03-03T03:43:54.445Z,19.92
2024-03-03T03:44:57.482Z,19.02
2024-03-03T03:45:59.515Z,19.33
2024-03-03T03:47:03.337Z,19.83
2024-03-03T03:48:05.941Z,19.00
2024-03-03T03:49:10.714Z,18.17
2024-03-03T03:50:12.721Z,16.73
2024-03-03T03:51:15.671Z,17.70
2024-03-03T03:52:18.611Z,16.20
2024-03-03T03:53:22.570Z,15.20
2024-03-03T03:54:24.712Z,16.75
2024-03-03T03:55:27.673Z,17.13
2024-03-03T03:56:31.046Z,15.43
2024-03-03T03:57:33.000Z,15.25
2024-03-03T03:58:36.345Z,16.08
2024-03-03T03:59:38.629Z,18.38
2024-03-03T04:00:41.624Z,17.90
2024-03-03T04:01:43.802Z,17.48
2024-03-03T04:02:46.799Z,18.40
2024-03-03T04:03:48.917Z,18.17
2024-03-03T04:04:51.870Z,17.92
2024-03-03T04:05:53.820Z,16.35
2024-03-03T04:06:55.785Z,17.02
2024-03-03T04:07:58.707Z,16.02
2024-03-03T04:09:02.369Z,19.88
2024-03-03T04:10:06.646Z,21.35
2024-03-03T04:11:09.463Z,18.58
2024-03-03T04:12:14.134Z,20.33
2024-03-03T04:13:16.247Z,19.83
2024-03-03T04:14:19.168Z,17.00
2024-03-03T04:15:21.144Z,20.45
2024-03-03T04:16:24.167Z,18.85
2024-03-03T04:17:26.164Z,19.83
2024-03-03T04:18:31.498Z,19.83
2024-03-03T04:19:34.136Z,21.55
2024-03-03T04:20:37.500Z,15.93
2024-03-03T04:21:41.692Z,15.73
2024-03-03T04:22:44.725Z,18.45
2024-03-03T04:23:46.668Z,21.40
2024-03-03T04:24:49.583Z,20.02
2024-03-03T04:25:51.598Z,20.02
2024-03-03T04:26:53.570Z,19.15
2024-03-03T04:27:57.914Z,18.13
2024-03-03T04:29:00.293Z,18.27
2024-03-03T04:30:03.254Z,18.25
2024-03-03T04:31:06.960Z,18.10
2024-03-03T04:32:10.209Z,16.42
2024-03-03T04:33:13.673Z,15.43
2024-03-03T04:34:16.782Z,14.70
2024-03-03T04:35:18.890Z,16.95
2024-03-03T04:36:21.856Z,17.48
2024-03-03T04:37:23.868Z,16.92
2024-03-03T04:38:26.841Z,16.95
2024-03-03T04:39:29.542Z,17.98
2024-03-03T04:40:32.571Z,16.15
2024-03-03T04:41:34.738Z,16.00
2024-03-03T04:42:37.726Z,18.15
2024-03-03T04:43:41.168Z,17.63
2024-03-03T04:44:44.212Z,18.95
2024-03-03T04:45:47.678Z,17.85
2024-03-03T04:46:50.582Z,17.73
2024-03-03T04:47:52.597Z,17.52
2024-03-03T04:48:55.563Z,18.17
2024-03-03T04:49:57.596Z,16.13
2024-03-03T04:51:00.536Z,15.15
2024-03-03T04:52:02.616Z,21.95
2024-03-03T04:53:05.895Z,23.15
2024-03-03T04:54:08.022Z,19.77
2024-03-03T04:55:11.073Z,20.13
2024-03-03T04:56:13.046Z,17.67
2024-03-03T04:57:16.044Z,19.40
2024-03-03T04:58:18.435Z,21.67
2024-03-03T04:59:21.821Z,23.27
2024-03-03T05:00:24.818Z,20.58
2024-03-03T05:01:27.761Z,21.75
2024-03-03T05:02:31.197Z,19.80
2024-03-03T05:03:33.222Z,17.40
2024-03-03T05:04:36.129Z,14.90
2024-03-03T05:05:38.437Z,18.88
2024-03-03T05:06:49.774Z,17.33
2024-03-03T05:07:51.820Z,16.75
2024-03-03T05:08:54.768Z,17.00
2024-03-03T05:09:57.293Z,18.40
2024-03-03T05:11:00.298Z,17.58
2024-03-03T05:12:02.529Z,17.13
2024-03-03T05:13:05.851Z,16.95
2024-03-03T05:14:07.825Z,16.63
2024-03-03T05:15:11.399Z,15.30
2024-03-03T05:16:14.421Z,15.38
2024-03-03T05:17:16.401Z,13.88
2024-03-03T05:18:20.122Z,15.23
2024-03-03T05:19:24.022Z,17.08
2024-03-03T05:20:26.955Z,17.10
2024-03-03T05:21:29.448Z,16.45
2024-03-03T05:22:31.433Z,16.95
2024-03-03T05:23:34.452Z,16.30
2024-03-03T05:24:36.643Z,15.63
2024-03-03T05:25:39.618Z,17.83
2024-03-03T05:26:41.635Z,19.10
2024-03-03T05:27:44.585Z,18.50
2024-03-03T05:28:47.692Z,15.48
2024-03-03T05:29:50.644Z,14.73
2024-03-03T05:30:53.954Z,16.23
2024-03-03T05:31:57.092Z,18.40
2024-03-03T05:32:59.036Z,20.45
2024-03-03T05:34:03.150Z,15.63
2024-03-03T05:35:06.887Z,15.30
2024-03-03T05:36:09.884Z,14.95
2024-03-03T05:37:12.227Z,17.17
2024-03-03T05:38:16.274Z,18.33
2024-03-03T05:39:18.490Z,14.20
2024-03-03T05:40:22.086Z,15.25
2024-03-03T05:41:26.576Z,15.75
2024-03-03T05:42:29.529Z,16.75
2024-03-03T05:43:31.570Z,16.95
2024-03-03T05:44:36.417Z,16.25
2024-03-03T05:45:39.194Z,17.83
2024-03-03T05:46:43.622Z,16.75
2024-03-03T05:47:45.603Z,17.88
2024-03-03T05:48:48.612Z,22.38
2024-03-03T05:49:50.636Z,44.30
2024-03-03T05:50:52.555Z,26.50
2024-03-03T05:51:55.513Z,19.52
2024-03-03T05:52:57.434Z,20.10
2024-03-03T05:54:02.517Z,19.50
2024-03-03T05:55:05.186Z,15.07
2024-03-03T05:56:08.635Z,18.33
2024-03-03T05:57:12.371Z,16.23
2024-03-03T05:58:15.342Z,15.63
2024-03-03T05:59:17.402Z,18.02
2024-03-03T06:00:20.563Z,17.80
2024-03-03T06:01:22.709Z,15.05
2024-03-03T06:02:26.999Z,15.82
2024-03-03T06:03:29.203Z,15.85
2024-03-03T06:04:36.551Z,16.42
2024-03-03T06:05:38.547Z,16.10
2024-03-03T06:06:41.464Z,15.85
2024-03-03T06:07:43.462Z,15.55
2024-03-03T06:08:46.702Z,15.13
2024-03-03T06:09:49.090Z,15.35
2024-03-03T06:10:52.379Z,16.25
2024-03-03T06:11:54.370Z,17.30
2024-03-03T06:12:57.326Z,16.30
2024-03-03T06:13:59.345Z,17.45
2024-03-03T06:15:01.354Z,16.77
2024-03-03T06:16:05.695Z,15.40
2024-03-03T06:17:08.740Z,14.75
2024-03-03T06:18:13.035Z,16.52
2024-03-03T06:19:15.038Z,20.35
2024-03-03T06:20:18.104Z,17.35
2024-03-03T06:21:20.108Z,17.52
2024-03-03T06:22:23.186Z,15.50
2024-03-03T06:23:26.321Z,14.85
2024-03-03T06:24:29.259Z,15.05
2024-03-03T06:25:32.695Z,16.02
2024-03-03T06:26:36.425Z,14.40
2024-03-03T06:27:38.385Z,15.30
2024-03-03T06:28:42.495Z,14.15
2024-03-03T06:29:44.429Z,15.88
2024-03-03T06:30:47.450Z,15.77
2024-03-03T06:31:50.299Z,16.83
2024-03-03T06:32:53.327Z,16.27
2024-03-03T06:33:56.721Z,14.88
2024-03-03T06:34:59.629Z,16.42
2024-03-03T06:36:01.606Z,16.05
2024-03-03T06:37:04.726Z,15.48
2024-03-03T06:38:06.798Z,14.63
2024-03-03T06:39:11.541Z,17.55
2024-03-03T06:40:13.890Z,14.93
2024-03-03T06:41:17.484Z,15.25
2024-03-03T06:42:19.731Z,13.70
2024-03-03T06:43:22.780Z,15.50
2024-03-03T06:44:24.789Z,16.77
2024-03-03T06:45:26.767Z,17.13
2024-03-03T06:46:29.659Z,17.58
2024-03-03T06:47:33.260Z,19.13
2024-03-03T06:48:36.182Z,16.95
2024-03-03T06:49:40.236Z,16.92
2024-03-03T06:50:43.527Z,17.23
2024-03-03T06:51:45.498Z,16.20
2024-03-03T06:52:48.436Z,16.35
2024-03-03T06:53:50.408Z,17.30
2024-03-03T06:54:53.359Z,17.48
2024-03-03T06:55:55.366Z,16.33
2024-03-03T06:56:57.322Z,16.10
2024-03-03T06:58:00.423Z,16.75
2024-03-03T06:59:02.420Z,16.92
2024-03-03T07:00:07.356Z,15.77
2024-03-03T07:01:09.501Z,16.25
2024-03-03T07:02:12.755Z,15.25
2024-03-03T07:03:30.514Z,14.77
2024-03-03T07:04:33.493Z,14.48
2024-03-03T07:05:36.870Z,14.45
2024-03-03T07:06:39.829Z,14.02
2024-03-03T07:07:41.902Z,13.25
2024-03-03T07:08:43.866Z,14.45
2024-03-03T07:09:46.812Z,14.82
2024-03-03T07:10:48.817Z,14.10
2024-03-03T07:11:53.140Z,13.45
2024-03-03T07:12:55.143Z,13.70
2024-03-03T07:13:57.173Z,15.70
2024-03-03T07:15:00.063Z,15.23
2024-03-03T07:16:02.374Z,14.48
2024-03-03T07:17:05.423Z,14.10
2024-03-03T07:18:07.550Z,12.85
2024-03-03T07:19:10.571Z,14.23
2024-03-03T07:20:12.729Z,12.60
2024-03-03T07:21:17.146Z,13.40
2024-03-03T07:22:19.074Z,12.85
2024-03-03T07:23:22.032Z,12.77
2024-03-03T07:24:25.333Z,13.07
2024-03-03T07:25:28.762Z,13.82
2024-03-03T07:26:31.083Z,14.18
2024-03-03T07:27:34.516Z,14.43
2024-03-03T07:28:36.565Z,17.63
2024-03-03T07:29:39.969Z,15.45
2024-03-03T07:30:42.211Z,15.52
2024-03-03T07:31:45.183Z,13.45
2024-03-03T07:32:47.136Z,15.75
2024-03-03T07:33:49.296Z,13.35
2024-03-03T07:34:52.265Z,12.57
2024-03-03T07:35:54.258Z,13.93
2024-03-03T07:36:58.795Z,12.82
2024-03-03T07:38:01.485Z,11.85
2024-03-03T07:39:07.121Z,12.27
2024-03-03T07:40:10.916Z,12.90
2024-03-03T07:41:14.075Z,13.43
2024-03-03T07:42:16.124Z,13.77
2024-03-03T07:43:19.211Z,14.75
2024-03-03T07:44:21.252Z,14.95
2024-03-03T07:45:24.388Z,14.18
2024-03-03T07:46:26.418Z,15.32
2024-03-03T07:47:30.751Z,15.95
2024-03-03T07:48:32.866Z,15.63
2024-03-03T07:49:34.880Z,15.02
2024-03-03T07:50:37.949Z,16.75
2024-03-03T07:51:40.104Z,16.10
2024-03-03T07:52:43.454Z,14.85
2024-03-03T07:53:47.229Z,15.27
2024-03-03T07:54:49.400Z,15.60
2024-03-03T07:55:52.370Z,15.40
2024-03-03T07:56:54.665Z,14.65
2024-03-03T07:57:57.622Z,16.08
2024-03-03T07:59:04.746Z,15.73
2024-03-03T08:00:09.944Z,17.10
2024-03-03T08:01:17.826Z,15.90
2024-03-03T08:02:20.833Z,16.95
2024-03-03T08:03:22.746Z,15.30
2024-03-03T08:04:27.189Z,15.27
2024-03-03T08:05:29.176Z,15.85
2024-03-03T08:06:32.218Z,17.88
2024-03-03T08:07:34.196Z,14.38
2024-03-03T08:08:38.562Z,15.65
2024-03-03T08:09:40.635Z,14.02
2024-03-03T08:10:42.740Z,14.40
2024-03-03T08:11:45.802Z,16.67
2024-03-03T08:12:47.856Z,17.42
2024-03-03T08:13:50.833Z,17.38
2024-03-03T08:14:52.774Z,17.10
2024-03-03T08:15:55.885Z,15.48
2024-03-03T08:16:57.907Z,15.82
2024-03-03T08:18:02.255Z,19.40
2024-03-03T08:19:04.864Z,17.23
2024-03-03T08:20:08.941Z,15.18
2024-03-03T08:21:13.356Z,15.27
2024-03-03T08:22:16.428Z,14.25
2024-03-03T08:23:18.749Z,14.18
2024-03-03T08:24:23.094Z,14.55
2024-03-03T08:25:25.887Z,12.73
2024-03-03T08:26:29.205Z,12.48
2024-03-03T08:27:31.169Z,12.40
2024-03-03T08:28:35.720Z,13.55
2024-03-03T08:29:38.174Z,12.48
2024-03-03T08:30:41.175Z,13.80
2024-03-03T08:31:45.828Z,14.98
2024-03-03T08:32:49.049Z,12.68
2024-03-03T08:33:51.119Z,14.98
2024-03-03T08:34:53.244Z,16.45
2024-03-03T08:35:56.229Z,16.77
2024-03-03T08:36:58.264Z,15.68
2024-03-03T08:38:01.375Z,16.08
2024-03-03T08:39:04.283Z,14.32
2024-03-03T08:40:11.100Z,13.15
2024-03-03T08:41:13.198Z,12.20
2024-03-03T08:42:16.334Z,13.77
2024-03-03T08:43:19.432Z,13.55
2024-03-03T08:44:24.110Z,12.95
2024-03-03T08:45:27.434Z,12.70
2024-03-03T08:46:30.559Z,12.57
2024-03-03T08:47:32.695Z,14.27
2024-03-03T08:48:35.705Z,11.13
2024-03-03T08:49:37.684Z,11.18
2024-03-03T08:50:40.685Z,11.30
2024-03-03T08:51:43.820Z,12.23
2024-03-03T08:52:46.828Z,11.52
2024-03-03T08:53:48.816Z,12.05
2024-03-03T08:54:51.822Z,12.00
2024-03-03T08:55:55.191Z,10.52
2024-03-03T08:56:58.562Z,11.27
2024-03-03T08:58:00.624Z,11.00
2024-03-03T08:59:04.221Z,10.82
2024-03-03T09:00:14.242Z,9.68
2024-03-03T09:01:17.494Z,10.70
2024-03-03T09:02:19.788Z,10.75
2024-03-03T09:03:23.002Z,10.23
2024-03-03T09:04:25.071Z,10.98
2024-03-03T09:05:28.694Z,9.70
2024-03-03T09:06:30.693Z,9.48
2024-03-03T09:07:33.680Z,8.75
2024-03-03T09:08:37.689Z,9.38
2024-03-03T09:09:42.899Z,9.07
2024-03-03T09:10:47.440Z,9.68
2024-03-03T09:11:51.847Z,9.85
2024-03-03T09:12:54.634Z,9.15
2024-03-03T09:13:57.641Z,8.75
2024-03-03T09:14:59.773Z,9.70
2024-03-03T09:16:02.777Z,10.02
2024-03-03T09:17:04.795Z,67.68
2024-03-03T09:18:08.230Z,14.25
2024-03-03T09:19:10.455Z,9.63
2024-03-03T09:20:14.387Z,11.20
2024-03-03T09:21:16.668Z,10.40
2024-03-03T09:22:19.733Z,16.67
2024-03-03T09:23:21.735Z,14.05
2024-03-03T09:24:26.609Z,13.52
2024-03-03T09:25:28.880Z,14.77
2024-03-03T09:26:31.930Z,12.70
2024-03-03T09:27:36.323Z,15.95
2024-03-03T09:28:40.207Z,13.13
2024-03-03T09:30:45.033Z,10.80
2024-03-03T09:31:47.388Z,11.25
2024-03-03T09:32:53.529Z,10.77
2024-03-03T09:33:55.620Z,10.82
2024-03-03T09:34:57.597Z,10.70
2024-03-03T09:36:00.940Z,10.30
2024-03-03T09:37:02.987Z,10.52
2024-03-03T09:38:06.641Z,11.60
2024-03-03T09:39:08.766Z,10.48
2024-03-03T09:40:16.286Z,10.82
2024-03-03T09:41:18.948Z,10.52
2024-03-03T09:42:22.021Z,9.77
2024-03-03T09:43:29.645Z,11.25
2024-03-03T09:44:42.778Z,9.27
2024-03-03T09:45:45.311Z,8.77
2024-03-03T09:46:50.156Z,8.30
2024-03-03T09:47:52.501Z,9.30
2024-03-03T09:48:57.875Z,8.73
2024-03-03T09:50:00.781Z,9.07
2024-03-03T09:51:02.871Z,9.38
2024-03-03T09:52:10.564Z,9.85
2024-03-03T09:53:13.796Z,8.68
2024-03-03T09:54:17.924Z,9.68
2024-03-03T09:55:20.711Z,9.13
2024-03-03T09:56:25.908Z,8.70
2024-03-03T09:57:32.705Z,9.30
2024-03-03T09:58:37.083Z,9.00
2024-03-03T09:59:39.424Z,8.45
2024-03-03T10:00:43.358Z,8.40
2024-03-03T10:01:51.076Z,8.52
2024-03-03T10:02:56.868Z,9.52
2024-03-03T10:04:00.339Z,7.90
2024-03-03T10:05:05.696Z,7.55
2024-03-03T10:06:11.734Z,8.10
2024-03-03T10:07:25.284Z,8.90
2024-03-03T10:08:28.885Z,8.05
2024-03-03T10:09:33.478Z,7.97
2024-03-03T10:10:37.413Z,7.38
2024-03-03T10:11:43.973Z,8.32
2024-03-03T10:12:47.637Z,7.53
2024-03-03T10:13:53.695Z,7.88
2024-03-03T10:14:58.277Z,8.32
2024-03-03T10:16:04.035Z,8.23
2024-03-03T10:17:06.500Z,8.80
2024-03-03T10:18:10.362Z,8.50
2024-03-03T10:19:12.401Z,8.80
2024-03-03T10:20:15.456Z,8.85
2024-03-03T10:21:18.613Z,8.05
2024-03-03T10:22:22.671Z,9.02
2024-03-03T10:23:25.586Z,8.23
2024-03-03T10:24:30.507Z,7.90
2024-03-03T10:25:32.729Z,8.23
2024-03-03T10:26:38.895Z,8.88
2024-03-03T10:27:42.690Z,8.02
2024-03-03T10:29:06.043Z,7.97
2024-03-03T10:30:10.718Z,6.63
2024-03-03T10:31:16.836Z,6.97
2024-03-03T10:32:19.087Z,7.57
2024-03-03T10:33:22.310Z,7.57
2024-03-03T10:34:25.425Z,7.55
2024-03-03T10:35:28.860Z,8.52
2024-03-03T10:36:33.730Z,7.93
2024-03-03T10:37:36.688Z,7.22
2024-03-03T10:38:38.916Z,8.27
2024-03-03T10:39:42.187Z,8.00
2024-03-03T10:40:44.677Z,7.60
2024-03-03T10:41:47.696Z,7.40
2024-03-03T10:42:50.279Z,7.18
2024-03-03T10:43:52.532Z,8.73
2024-03-03T10:44:56.861Z,9.38
2024-03-03T10:45:58.794Z,7.72
2024-03-03T10:47:01.653Z,7.00
2024-03-03T10:48:04.120Z,6.78
2024-03-03T10:49:07.328Z,7.95
2024-03-03T10:50:14.544Z,7.05
2024-03-03T10:51:20.811Z,7.30
2024-03-03T10:52:22.795Z,6.57
2024-03-03T10:53:31.381Z,7.32
2024-03-03T10:54:35.186Z,6.90
2024-03-03T10:55:39.022Z,7.13
2024-03-03T10:56:42.598Z,6.63
2024-03-03T10:57:46.333Z,6.80
2024-03-03T10:59:54.342Z,6.68
2024-03-03T11:00:58.302Z,6.40
2024-03-03T11:02:03.636Z,5.78
2024-03-03T11:03:10.487Z,6.70
2024-03-03T11:04:15.762Z,6.05
2024-03-03T11:05:17.861Z,6.72
2024-03-03T11:06:21.055Z,6.32
2024-03-03T11:07:23.602Z,6.80
2024-03-03T11:08:26.865Z,6.90
2024-03-03T11:09:28.968Z,7.05
2024-03-03T11:10:33.194Z,7.18
2024-03-03T11:11:38.889Z,6.90
2024-03-03T11:12:44.761Z,6.85
2024-03-03T11:13:52.604Z,7.60
2024-03-03T11:14:58.297Z,7.03
2024-03-03T11:16:05.177Z,6.72
2024-03-03T11:17:13.794Z,6.78
2024-03-03T11:18:18.979Z,6.50
2024-03-03T11:19:28.809Z,6.55
2024-03-03T11:20:37.195Z,5.57
2024-03-03T11:21:47.642Z,6.55
2024-03-03T11:22:59.744Z,7.47
2024-03-03T11:24:06.806Z,6.60
2024-03-03T11:25:13.563Z,6.53
2024-03-03T11:26:25.240Z,7.05
2024-03-03T11:27:30.298Z,6.70
2024-03-03T11:28:36.318Z,6.38
2024-03-03T11:29:39.418Z,6.50
2024-03-03T11:30:43.777Z,6.63
2024-03-03T11:31:48.201Z,7.00
2024-03-03T11:32:52.703Z,6.65
2024-03-03T11:33:56.262Z,6.28
2024-03-03T11:36:03.080Z,5.63
2024-03-03T11:37:07.476Z,5.20
2024-03-03T11:38:09.472Z,4.63
2024-03-03T11:39:16.554Z,4.82
2024-03-03T11:40:20.888Z,4.32
2024-03-03T11:41:24.414Z,5.05
2024-03-03T11:42:38.701Z,4.88
2024-03-03T11:43:42.015Z,4.05
2024-03-03T11:44:51.924Z,4.10
2024-03-03T11:46:00.070Z,6.10
2024-03-03T11:47:05.761Z,6.65
2024-03-03T11:48:10.838Z,5.63
2024-03-03T11:49:13.994Z,5.65
2024-03-03T11:50:20.121Z,5.35
2024-03-03T11:51:27.183Z,4.78
2024-03-03T11:52:40.758Z,1.80
2024-03-03T11:53:44.730Z,1.20
2024-03-03T11:54:53.528Z,1.67
2024-03-03T11:55:57.967Z,1.88
2024-03-03T11:57:00.622Z,1.85
2024-03-03T11:58:06.499Z,2.17
2024-03-03T11:59:08.945Z,0.90
2024-03-03T12:00:18.296Z,0.95
2024-03-03T12:01:23.887Z,0.95
2024-03-03T12:02:28.053Z,0.65
2024-03-03T12:03:31.123Z,0.50
2024-03-03T12:04:33.371Z,0.60
2024-03-03T12:05:36.907Z,0.60
2024-03-03T12:06:43.785Z,0.52
2024-03-03T12:07:47.507Z,0.40
2024-03-03T12:08:56.047Z,0.50
2024-03-03T12:09:58.437Z,0.85
2024-03-03T12:11:01.825Z,0.60
2024-03-03T12:12:05.085Z,0.70
2024-03-03T12:13:08.335Z,0.80
2024-03-03T12:14:10.484Z,2.35
2024-03-03T12:15:12.954Z,0.70
2024-03-03T12:16:16.260Z,0.90
2024-03-03T12:17:18.620Z,0.80
2024-03-03T12:18:26.424Z,0.70
2024-03-03T12:19:33.460Z,1.10
2024-03-03T12:20:38.163Z,0.50
2024-03-03T12:21:41.133Z,0.57
2024-03-03T12:22:43.707Z,0.80
2024-03-03T12:23:46.811Z,0.95
2024-03-03T12:24:56.177Z,1.98
2024-03-03T12:26:02.260Z,0.50
2024-03-03T12:27:08.238Z,0.60
2024-03-03T12:28:11.939Z,0.52
2024-03-03T12:29:14.192Z,0.57
2024-03-03T12:30:22.023Z,1.70
2024-03-03T12:31:24.552Z,1.00
2024-03-03T12:32:27.325Z,0.70
2024-03-03T12:33:32.131Z,0.98
2024-03-03T12:34:34.266Z,0.80
2024-03-03T12:35:38.667Z,0.57
2024-03-03T12:36:40.873Z,0.70
2024-03-03T12:37:44.083Z,0.63
2024-03-03T12:38:48.998Z,0.70
2024-03-03T12:39:54.000Z,1.20
2024-03-03T12:40:56.114Z,0.43
2024-03-03T12:41:59.321Z,0.30
2024-03-03T12:43:03.297Z,0.50
2024-03-03T12:44:07.142Z,0.60
2024-03-03T12:46:14.583Z,1.00
2024-03-03T12:47:16.939Z,0.52
2024-03-03T12:48:20.689Z,0.80
2024-03-03T12:49:24.449Z,0.50
2024-03-03T12:50:28.164Z,1.02
2024-03-03T12:51:30.804Z,0.60
2024-03-03T12:52:34.507Z,1.02
2024-03-03T12:53:41.003Z,0.85
2024-03-03T12:54:45.138Z,1.02
2024-03-03T12:55:47.825Z,0.60
2024-03-03T12:56:50.926Z,0.63
2024-03-03T12:57:53.832Z,0.40
2024-03-03T12:58:57.003Z,0.50
2024-03-03T12:59:59.202Z,0.90
2024-03-03T13:01:02.513Z,1.33
2024-03-03T13:02:10.833Z,1.02
2024-03-03T13:03:14.804Z,0.55
2024-03-03T13:04:17.038Z,0.85
2024-03-03T13:05:22.414Z,0.70
2024-03-03T13:06:24.644Z,0.70
2024-03-03T13:07:28.331Z,0.80
2024-03-03T13:08:32.750Z,0.70
2024-03-03T13:09:36.089Z,1.95
2024-03-03T13:10:39.810Z,1.05
2024-03-03T13:11:44.188Z,0.32
2024-03-03T13:12:46.663Z,0.40
2024-03-03T13:13:50.462Z,0.55
2024-03-03T13:14:54.337Z,0.52
2024-03-03T13:15:57.567Z,0.70
2024-03-03T13:17:04.551Z,0.80
2024-03-03T13:18:08.249Z,0.50
2024-03-03T13:19:11.882Z,0.52
2024-03-03T13:20:15.371Z,0.60
2024-03-03T13:21:18.948Z,0.32
2024-03-03T13:23:25.307Z,1.10
2024-03-03T13:24:27.400Z,0.70
2024-03-03T13:25:30.747Z,1.73
2024-03-03T13:26:32.948Z,0.60
2024-03-03T13:27:36.616Z,0.85
2024-03-03T13:28:39.300Z,1.10
2024-03-03T13:29:42.008Z,0.93
2024-03-03T13:30:57.824Z,0.93
2024-03-03T13:31:59.954Z,0.75
2024-03-03T13:33:03.309Z,1.00
2024-03-03T13:34:05.924Z,0.77
2024-03-03T13:35:09.541Z,1.33
2024-03-03T13:37:17.991Z,0.70
2024-03-03T13:38:21.468Z,1.00
2024-03-03T13:40:26.718Z,1.08
2024-03-03T13:41:29.043Z,1.50
2024-03-03T13:42:32.249Z,1.23
2024-03-03T13:43:34.905Z,1.33
2024-03-03T13:44:39.598Z,1.42
2024-03-03T13:45:41.974Z,1.10
2024-03-03T13:46:45.945Z,0.90
2024-03-03T13:47:48.605Z,1.23
2024-03-03T13:48:52.132Z,0.80
2024-03-03T13:49:54.430Z,1.20
2024-03-03T13:50:59.972Z,0.75
2024-03-03T13:52:07.935Z,0.57
2024-03-03T13:53:14.852Z,0.60
2024-03-03T13:54:17.082Z,0.98